createdAt,value
2023-01-11T00:02:18.338Z,90.06
2023-01-11T00:05:20.828Z,91.16
2023-01-11T00:08:26.355Z,91.67
2023-01-11T00:11:28.805Z,92.19
2023-01-11T00:14:30.947Z,92.21
2023-01-11T00:17:33.550Z,92.90
2023-01-11T00:20:39.279Z,91.80
2023-01-11T00:23:41.787Z,93.38
2023-01-11T00:26:43.995Z,92.70
2023-01-11T00:29:46.454Z,92.83
2023-01-11T00:32:48.603Z,92.88
2023-01-11T00:35:52.188Z,93.02
2023-01-11T00:38:55.359Z,92.54
2023-01-11T00:42:16.157Z,91.69
2023-01-11T00:45:37.073Z,92.13
2023-01-11T00:48:39.532Z,91.94
2023-01-11T00:51:41.711Z,92.31
2023-01-11T00:54:44.202Z,92.71
2023-01-11T00:57:46.679Z,92.85
2023-01-11T01:00:49.200Z,93.05
2023-01-11T01:03:51.423Z,93.54
2023-01-11T01:06:53.957Z,93.75
2023-01-11T01:09:56.239Z,92.90
2023-01-11T01:13:17.791Z,92.56
2023-01-11T01:16:20.152Z,92.42
2023-01-11T01:19:23.498Z,92.65
2023-01-11T01:22:25.724Z,93.04
2023-01-11T01:25:28.216Z,93.41
2023-01-11T01:28:30.734Z,92.72
2023-01-11T01:31:33.430Z,91.77
2023-01-11T01:34:39.159Z,91.57
2023-01-11T01:37:43.885Z,90.82
2023-01-11T01:40:48.103Z,91.66
2023-01-11T01:43:56.433Z,91.08
2023-01-11T01:46:58.738Z,91.57
2023-01-11T01:50:08.146Z,91.58
2023-01-11T01:53:17.074Z,91.48
2023-01-11T01:56:30.425Z,91.29
2023-01-11T01:59:33.897Z,90.26
2023-01-11T02:02:38.106Z,89.40
2023-01-11T02:05:40.705Z,89.15
2023-01-11T02:08:49.429Z,89.19
2023-01-11T02:11:54.137Z,89.41
2023-01-11T02:14:56.431Z,88.79
2023-01-11T02:17:58.878Z,89.43
2023-01-11T02:21:25.912Z,89.46
2023-01-11T02:25:02.768Z,90.05
2023-01-11T02:28:22.833Z,90.00
2023-01-11T02:31:41.304Z,90.32
2023-01-11T02:35:02.035Z,90.40
2023-01-11T02:38:14.272Z,89.78
2023-01-11T02:41:21.161Z,90.92
2023-01-11T02:45:05.183Z,91.07
2023-01-11T02:48:26.406Z,89.86
2023-01-11T02:51:35.499Z,89.36
2023-01-11T02:54:41.675Z,90.36
2023-01-11T02:57:45.942Z,89.93
2023-01-11T03:00:49.095Z,89.65
2023-01-11T03:03:52.808Z,89.93
2023-01-11T03:07:03.018Z,89.05
2023-01-11T03:10:31.946Z,89.23
2023-01-11T03:13:39.096Z,88.53
2023-01-11T03:16:51.679Z,86.65
2023-01-11T03:20:00.474Z,88.67
2023-01-11T03:23:21.909Z,90.38
2023-01-11T03:26:23.802Z,90.87
2023-01-11T03:29:34.206Z,92.41
2023-01-11T03:32:54.900Z,93.34
2023-01-11T03:36:11.178Z,95.20
2023-01-11T03:39:29.040Z,92.74
2023-01-11T03:42:34.048Z,90.38
2023-01-11T03:45:39.398Z,92.21
2023-01-11T03:48:51.004Z,92.92
2023-01-11T03:51:56.773Z,93.03
2023-01-11T03:55:00.162Z,93.10
2023-01-11T03:58:02.547Z,92.69
2023-01-11T04:01:05.645Z,93.11
2023-01-11T04:04:08.143Z,92.81
2023-01-11T04:07:10.454Z,91.76
2023-01-11T04:10:13.025Z,92.77
2023-01-11T04:13:15.371Z,93.32
2023-01-11T04:16:18.031Z,93.95
2023-01-11T04:19:20.191Z,94.71
2023-01-11T04:22:22.666Z,93.52
2023-01-11T04:25:24.977Z,95.03
2023-01-11T04:28:27.484Z,93.82
2023-01-11T04:31:29.883Z,94.64
2023-01-11T04:34:32.408Z,92.99
2023-01-11T04:37:34.585Z,93.87
2023-01-11T04:40:37.240Z,94.17
2023-01-11T04:43:39.385Z,91.54
2023-01-11T04:46:41.983Z,91.61
2023-01-11T04:49:44.828Z,90.00
2023-01-11T04:52:47.312Z,90.97
2023-01-11T04:55:49.436Z,92.38
2023-01-11T04:58:51.853Z,91.69
2023-01-11T05:01:54.133Z,90.76
2023-01-11T05:04:56.563Z,93.04
2023-01-11T05:07:58.813Z,94.13
2023-01-11T05:11:05.270Z,93.70
2023-01-11T05:14:07.499Z,94.75
2023-01-11T05:17:14.049Z,95.90
2023-01-11T05:20:16.453Z,95.64
2023-01-11T05:23:19.230Z,96.90
2023-01-11T05:26:27.893Z,95.48
2023-01-11T05:29:30.518Z,95.74
2023-01-11T05:32:32.725Z,94.68
2023-01-11T05:35:35.532Z,94.99
2023-01-11T05:38:37.714Z,95.32
2023-01-11T05:41:40.620Z,95.06
2023-01-11T05:45:01.258Z,97.98
2023-01-11T05:48:04.288Z,97.57
2023-01-11T05:51:06.493Z,96.78
2023-01-11T05:54:14.388Z,97.51
2023-01-11T05:57:18.520Z,96.31
2023-01-11T06:00:23.085Z,96.73
2023-01-11T06:03:26.993Z,97.30
2023-01-11T06:06:29.695Z,96.98
2023-01-11T06:09:32.582Z,97.54
2023-01-11T06:12:35.257Z,98.33
2023-01-11T06:15:37.840Z,98.87
2023-01-11T06:18:45.822Z,99.40
2023-01-11T06:21:48.266Z,98.92
2023-01-11T06:24:50.401Z,98.84
2023-01-11T06:27:53.690Z,98.91
2023-01-11T06:30:57.602Z,100.00
2023-01-11T06:34:00.445Z,100.00
2023-01-11T06:37:03.512Z,99.00
2023-01-11T06:40:12.940Z,99.65
2023-01-11T06:43:15.231Z,99.62
2023-01-11T06:46:19.060Z,100.00
2023-01-11T06:49:21.492Z,100.00
2023-01-11T06:52:24.513Z,100.00
2023-01-11T06:55:28.314Z,100.00
2023-01-11T06:58:31.113Z,100.00
2023-01-11T07:01:34.129Z,99.09
2023-01-11T07:04:37.401Z,98.22
2023-01-11T07:07:41.209Z,97.06
2023-01-11T07:10:44.129Z,96.04
2023-01-11T07:13:46.645Z,96.72
2023-01-11T07:16:49.171Z,96.66
2023-01-11T07:19:52.560Z,96.20
2023-01-11T07:23:02.023Z,96.87
2023-01-11T07:26:04.231Z,96.87
2023-01-11T07:29:08.679Z,96.52
2023-01-11T07:32:11.013Z,97.28
2023-01-11T07:35:13.618Z,96.32
2023-01-11T07:38:15.922Z,95.95
2023-01-11T07:41:40.099Z,94.73
2023-01-11T07:44:46.659Z,94.56
2023-01-11T07:47:52.379Z,94.64
2023-01-11T07:50:55.659Z,94.61
2023-01-11T07:54:02.668Z,94.18
2023-01-11T07:57:05.211Z,93.38
2023-01-11T08:00:10.874Z,92.19
2023-01-11T08:03:14.580Z,91.63
2023-01-11T08:06:17.668Z,90.14
2023-01-11T08:09:20.166Z,90.75
2023-01-11T08:12:41.705Z,91.50
2023-01-11T08:15:44.245Z,92.32
2023-01-11T08:18:48.126Z,93.22
2023-01-11T08:21:51.235Z,93.86
2023-01-11T08:24:53.898Z,93.05
2023-01-11T08:27:56.155Z,93.36
2023-01-11T08:30:59.009Z,92.88
2023-01-11T08:34:01.671Z,93.34
2023-01-11T08:37:05.425Z,93.06
2023-01-11T08:40:10.302Z,92.23
2023-01-11T08:43:15.589Z,92.64
2023-01-11T08:46:21.541Z,93.62
2023-01-11T08:49:24.615Z,93.27
2023-01-11T08:52:30.870Z,91.98
2023-01-11T08:55:33.556Z,91.66
2023-01-11T08:58:36.410Z,91.49
2023-01-11T09:01:39.262Z,91.42
2023-01-11T09:04:41.972Z,91.63
2023-01-11T09:07:51.899Z,90.37
2023-01-11T09:10:56.284Z,90.00
2023-01-11T09:13:59.263Z,88.70
2023-01-11T09:17:01.714Z,88.16
2023-01-11T09:20:07.337Z,87.54
2023-01-11T09:23:09.633Z,87.94
2023-01-11T09:26:13.025Z,86.25
2023-01-11T09:29:16.032Z,84.02
2023-01-11T09:32:19.004Z,81.58
2023-01-11T09:35:22.620Z,80.80
2023-01-11T09:38:29.531Z,79.82
2023-01-11T09:41:34.453Z,79.01
2023-01-11T09:44:49.761Z,79.02
2023-01-11T09:48:01.059Z,78.10
2023-01-11T09:51:05.464Z,79.18
2023-01-11T09:54:16.674Z,78.53
2023-01-11T09:58:03.676Z,77.98
2023-01-11T10:01:15.839Z,77.42
2023-01-11T10:04:44.451Z,77.54
2023-01-11T10:18:28.620Z,74.32
2023-01-11T10:22:43.123Z,71.96
2023-01-11T10:25:51.792Z,70.21
2023-01-11T10:29:21.157Z,67.25
2023-01-11T10:32:48.001Z,65.88
2023-01-11T10:36:15.097Z,65.55
2023-01-11T10:39:43.686Z,65.78
2023-01-11T10:42:57.141Z,63.03
2023-01-11T10:49:48.320Z,62.60
2023-01-11T10:53:20.552Z,62.03
2023-01-11T10:57:02.322Z,59.92
2023-01-11T11:00:15.081Z,61.07
2023-01-11T11:03:30.884Z,61.90
2023-01-11T11:06:41.414Z,61.96
2023-01-11T11:10:24.622Z,62.10
2023-01-11T11:13:51.686Z,61.34
2023-01-11T11:17:12.379Z,61.94
2023-01-11T11:20:29.559Z,62.66
2023-01-11T11:23:34.965Z,60.53
2023-01-11T11:26:43.051Z,62.26
2023-01-11T11:29:53.130Z,61.97
2023-01-11T11:33:05.022Z,63.88
2023-01-11T11:36:12.387Z,60.10
2023-01-11T11:39:30.810Z,60.85
2023-01-11T11:42:33.123Z,60.34
2023-01-11T11:45:36.356Z,63.93
2023-01-11T11:48:38.715Z,60.78
2023-01-11T11:51:43.904Z,61.67
2023-01-11T11:54:53.366Z,63.91
2023-01-11T11:57:59.017Z,61.03
2023-01-11T12:01:02.670Z,62.15
2023-01-11T12:04:18.785Z,62.65
2023-01-11T12:07:25.020Z,61.12
2023-01-11T12:10:29.623Z,62.29
2023-01-11T12:13:38.151Z,61.50
2023-01-11T12:16:41.644Z,61.20
2023-01-11T12:19:45.324Z,61.18
2023-01-11T12:22:48.735Z,59.28
2023-01-11T12:26:16.666Z,63.90
2023-01-11T12:29:57.623Z,64.22
2023-01-11T12:33:27.869Z,64.95
2023-01-11T12:36:30.314Z,65.95
2023-01-11T12:39:49.803Z,64.42
2023-01-11T12:43:12.384Z,65.47
2023-01-11T12:46:37.528Z,65.18
2023-01-11T12:50:05.379Z,65.01
2023-01-11T12:53:36.909Z,65.97
2023-01-11T12:56:57.375Z,65.21
2023-01-11T13:00:18.716Z,65.31
2023-01-11T13:03:21.220Z,65.36
2023-01-11T13:06:39.361Z,65.48
2023-01-11T13:09:41.863Z,64.50
2023-01-11T13:12:51.416Z,64.70
2023-01-11T13:16:23.522Z,64.62
2023-01-11T13:20:18.984Z,66.51
2023-01-11T13:23:36.404Z,66.03
2023-01-11T13:26:44.303Z,66.01
2023-01-11T13:29:50.998Z,66.40
2023-01-11T13:33:19.709Z,65.43
2023-01-11T13:36:28.262Z,66.56
2023-01-11T13:39:53.919Z,66.12
2023-01-11T13:43:25.357Z,66.21
2023-01-11T13:46:36.707Z,66.62
2023-01-11T13:50:23.730Z,67.26
2023-01-11T13:53:37.504Z,67.22
2023-01-11T13:56:42.933Z,67.75
2023-01-11T13:59:51.449Z,67.97
2023-01-11T14:03:12.603Z,67.97
2023-01-11T14:06:42.687Z,67.49
2023-01-11T14:09:53.950Z,69.36
2023-01-11T14:13:12.522Z,68.36
2023-01-11T14:16:33.896Z,68.90
2023-01-11T14:19:54.865Z,70.01
2023-01-11T14:23:13.799Z,69.08
2023-01-11T14:26:34.997Z,68.50
2023-01-11T14:29:49.183Z,66.44
2023-01-11T14:32:57.487Z,67.08
2023-01-11T14:36:17.788Z,66.95
2023-01-11T14:39:23.837Z,66.98
2023-01-11T14:42:53.704Z,67.97
2023-01-11T14:45:56.082Z,68.99
2023-01-11T14:49:22.610Z,70.34
2023-01-11T14:52:39.198Z,71.78
2023-01-11T14:55:47.889Z,72.45
2023-01-11T14:59:22.100Z,72.90
2023-01-11T15:02:26.798Z,73.22
2023-01-11T15:05:29.308Z,73.86
2023-01-11T15:08:44.708Z,74.62
2023-01-11T15:11:47.193Z,75.15
2023-01-11T15:15:44.537Z,76.21
2023-01-11T15:18:47.203Z,77.30
2023-01-11T15:21:50.681Z,78.26
2023-01-11T15:25:05.510Z,79.08
2023-01-11T15:28:35.961Z,80.02
2023-01-11T15:31:54.269Z,81.03
2023-01-11T15:35:24.580Z,81.24
2023-01-11T15:38:36.923Z,80.71
2023-01-11T15:42:04.281Z,81.18
2023-01-11T15:45:36.205Z,80.93
2023-01-11T15:49:08.065Z,81.50
2023-01-11T15:52:37.174Z,82.28
2023-01-11T15:56:05.508Z,82.04
2023-01-11T15:59:55.147Z,82.84
2023-01-11T16:02:57.263Z,83.07
2023-01-11T16:06:31.984Z,83.45
2023-01-11T16:10:02.469Z,84.13
2023-01-11T16:13:36.232Z,86.22
2023-01-11T16:16:41.698Z,86.53
2023-01-11T16:19:45.382Z,86.55
2023-01-11T16:23:14.209Z,85.42
2023-01-11T16:26:19.642Z,85.34
2023-01-11T16:29:28.812Z,85.26
2023-01-11T16:32:32.952Z,86.17
2023-01-11T16:35:35.524Z,86.69
2023-01-11T16:39:04.846Z,86.30
2023-01-11T16:42:11.072Z,86.60
2023-01-11T16:45:18.776Z,86.54
2023-01-11T16:48:29.456Z,87.76
2023-01-11T16:51:32.341Z,87.76
2023-01-11T16:54:35.292Z,88.12
2023-01-11T16:57:44.073Z,88.82
2023-01-11T17:01:00.676Z,89.42
2023-01-11T17:04:07.262Z,89.29
2023-01-11T17:07:12.194Z,89.86
2023-01-11T17:10:22.330Z,89.97
2023-01-11T17:13:52.893Z,89.98
2023-01-11T17:17:01.474Z,90.03
2023-01-11T17:20:13.790Z,90.41
2023-01-11T17:23:17.140Z,90.87
2023-01-11T17:26:25.893Z,90.84
2023-01-11T17:29:37.576Z,90.84
2023-01-11T17:32:43.596Z,91.04
2023-01-11T17:35:46.510Z,91.32
2023-01-11T17:38:48.755Z,91.61
2023-01-11T17:42:10.652Z,92.61
2023-01-11T17:45:22.680Z,92.74
2023-01-11T17:48:27.410Z,92.67
2023-01-11T17:51:32.312Z,92.73
2023-01-11T17:54:34.812Z,93.68
2023-01-11T17:57:37.403Z,93.86
2023-01-11T18:00:42.334Z,94.56
2023-01-11T18:03:46.317Z,94.26
2023-01-11T18:06:52.706Z,94.02
2023-01-11T18:10:02.181Z,94.16
2023-01-11T18:13:05.845Z,94.34
2023-01-11T18:16:08.657Z,94.56
2023-01-11T18:19:31.400Z,96.08
2023-01-11T18:22:41.749Z,96.44
2023-01-11T18:25:46.075Z,97.15
2023-01-11T18:28:51.109Z,96.35
2023-01-11T18:31:53.520Z,95.32
2023-01-11T18:34:58.708Z,94.95
2023-01-11T18:38:00.926Z,95.37
2023-01-11T18:41:27.465Z,95.77
2023-01-11T18:44:30.829Z,95.25
2023-01-11T18:47:33.359Z,95.60
2023-01-11T18:50:35.588Z,96.21
2023-01-11T18:53:38.068Z,96.31
2023-01-11T18:56:40.477Z,95.64
2023-01-11T18:59:43.578Z,95.06
2023-01-11T19:02:46.109Z,95.06
2023-01-11T19:05:48.614Z,94.74
2023-01-11T19:08:50.971Z,95.37
2023-01-11T19:11:53.605Z,95.24
2023-01-11T19:14:56.341Z,96.18
2023-01-11T19:21:11.776Z,96.83
2023-01-11T19:24:14.239Z,97.47
2023-01-11T19:27:16.826Z,97.09
2023-01-11T19:30:19.497Z,97.41
2023-01-11T19:33:21.995Z,96.72
2023-01-11T19:36:24.997Z,97.16
2023-01-11T19:39:27.404Z,97.28
2023-01-11T19:42:30.121Z,99.36
2023-01-11T19:45:32.595Z,100.00
2023-01-11T19:48:36.277Z,100.00
2023-01-11T19:51:40.046Z,100.00
2023-01-11T19:54:43.042Z,100.00
2023-01-11T19:57:45.731Z,100.00
2023-01-11T20:00:48.172Z,100.00
2023-01-11T20:03:50.747Z,100.00
2023-01-11T20:06:53.831Z,100.00
2023-01-11T20:09:56.851Z,100.00
2023-01-11T20:12:59.046Z,100.00
2023-01-11T20:16:06.183Z,99.37
2023-01-11T20:19:08.549Z,99.15
2023-01-11T20:22:11.089Z,98.74
2023-01-11T20:25:13.649Z,99.41
2023-01-11T20:28:16.241Z,99.58
2023-01-11T20:31:18.548Z,100.00
2023-01-11T20:34:21.459Z,100.00
2023-01-11T20:37:23.950Z,100.00
2023-01-11T20:40:26.456Z,100.00
2023-01-11T20:43:28.737Z,100.00
2023-01-11T20:46:31.517Z,100.00
2023-01-11T20:49:34.156Z,100.00
2023-01-11T20:52:36.711Z,100.00
2023-01-11T20:55:39.217Z,100.00
2023-01-11T20:58:41.690Z,99.76
2023-01-11T21:01:44.212Z,100.00
2023-01-11T21:04:47.056Z,100.00
2023-01-11T21:07:52.923Z,100.00
2023-01-11T21:10:55.408Z,100.00
2023-01-11T21:14:02.158Z,100.00
2023-01-11T21:17:04.761Z,100.00
2023-01-11T21:20:08.023Z,100.00
2023-01-11T21:23:15.212Z,99.39
2023-01-11T21:26:19.204Z,99.29
2023-01-11T21:29:21.918Z,98.90
2023-01-11T21:32:24.090Z,98.92
2023-01-11T21:35:27.242Z,99.71
2023-01-11T21:38:31.666Z,100.00
2023-01-11T21:41:52.938Z,100.00
2023-01-11T21:44:55.470Z,100.00
2023-01-11T21:47:57.972Z,100.00
2023-01-11T21:51:00.538Z,100.00
2023-01-11T21:54:08.012Z,100.00
2023-01-11T21:57:10.324Z,100.00
2023-01-11T22:00:14.611Z,100.00
2023-01-11T22:03:17.362Z,100.00
2023-01-11T22:06:19.875Z,100.00
2023-01-11T22:09:25.819Z,100.00
2023-01-11T22:12:28.307Z,100.00
2023-01-11T22:15:30.810Z,100.00
2023-01-11T22:18:35.221Z,100.00
2023-01-11T22:21:37.978Z,100.00
2023-01-11T22:24:40.184Z,100.00
2023-01-11T22:27:42.967Z,100.00
2023-01-11T22:30:45.191Z,100.00
2023-01-11T22:33:48.146Z,100.00
2023-01-11T22:36:50.877Z,100.00
2023-01-11T22:39:53.685Z,100.00
2023-01-11T22:42:56.232Z,100.00
2023-01-11T22:46:00.481Z,100.00
2023-01-11T22:49:04.880Z,100.00
2023-01-11T22:52:07.731Z,100.00
2023-01-11T22:55:10.373Z,100.00
2023-01-11T22:58:12.901Z,100.00
2023-01-11T23:01:25.990Z,100.00
2023-01-11T23:04:28.638Z,100.00
2023-01-11T23:07:30.917Z,99.39
2023-01-11T23:10:33.402Z,98.92
2023-01-11T23:13:58.918Z,97.43
2023-01-11T23:17:08.627Z,97.49
2023-01-11T23:20:11.540Z,98.40
2023-01-11T23:23:14.014Z,99.91
2023-01-11T23:26:20.339Z,99.49
2023-01-11T23:29:23.493Z,99.48
2023-01-11T23:32:26.050Z,99.84
2023-01-11T23:35:29.066Z,100.00
2023-01-11T23:38:32.702Z,100.00
2023-01-11T23:41:54.512Z,100.00
2023-01-11T23:44:58.781Z,99.73
2023-01-11T23:48:01.315Z,96.44
2023-01-11T23:51:04.503Z,93.38
2023-01-11T23:54:07.720Z,97.07
2023-01-11T23:57:12.256Z,99.84
